INFORMAÇÕES METEOROLÓGICAS
METAR FOR SBPJ
ADDS - METARS form results

(0113 UTC 25 May 2018)
Data provider http://aviationweather.gov/adds/metars/
 
Forecast for: SBPJ (PALMAS , BR)
Text: TAF SBPJ 242000Z 2500/2512 11005KT 7000 FEW025 TN23/2506Z TX27/2511Z
Forecast period: 0000 to 0600 UTC 25 May 2018
Forecast type: FROM: standard forecast or significant change
Winds: from the ESE (110 degrees) at 6 MPH (5 knots; 2.6 m/s)
Visibility: 4 miles (7 km)
Clouds: few clouds at 2500 feet AGL
Weather: no significant weather forecast for this period
Text: BECMG 2506/2508 11005KT 7000 FEW035 RMK PDE
Forecast period: 0600 to 1200 UTC 25 May 2018
Forecast type: BECOMING: Conditions expected to become as follows by 0800 UTC 25 May 2018
Winds: from the ESE (110 degrees) at 6 MPH (5 knots; 2.6 m/s)
Visibility: 4 miles (7 km)
Clouds: few clouds at 3500 feet AGL
Weather: no significant weather forecast for this period

 MAPA DO AEROPORTO

 INFORMAÇÕES DA PISTA
Pista 14 Tamanho da pista 8202 ft Largura da pista 148 ft
Elevação da pista 0 ft Ranhura da pista 0 ft Proa da pista 0
Pista 32 Tamanho da pista 8202 ft Largura da pista 148 ft
Elevação da pista 0 ft Ranhura da pista 0 ft Proa da pista 0

 FREQUÊNCIAS DO AEROPORTO
Tipo AFIS Nome PALMAS RDO Frequência 119 MHZ
Tipo APP Nome PALMAS APP Frequência 119 MHZ
Tipo TWR Nome PALMAS TWR Frequência 118 MHZ

 AUXÍLIOS DE NAVEGAÇÃO PRÓXIMOS AO AEROPORTO
Tipo VOR-DME Nome Palmas Frequência 112200 KHZ





Powered by Virtual Airlines Manager [v2.6.2]